Terminal Aerodrome Forecast
Issued by NWS

Home | Current Version | Previous Version | Text Only | Print | Product List | Glossary On
Versions: 1 2 3 4 5 6 7 8 9 10 11 12 13 14 15 16 17 18 19 20 21 22 23 24 25 26 27 28 29 30 31 32 33 34 35 36 37 38 39 40
000
FTUS45 KREV 212320
TAFRNO
TAF
KRNO 212320Z 2200/2224 13006KT P6SM FEW100 FEW200
     FM220100 28010KT P6SM SCT100 SCT180
     FM220400 VRB05KT P6SM FEW120 SCT200
     FM220900 VRB03KT P6SM VCSH SCT090 BKN140
     FM222200 18008KT P6SM SCT080 SCT200=

USA.gov is the U.S. government's official web portal to all federal, state and local government web resources and services.